createdAt,value
2018-12-26T00:01:34.580Z,11.60
2018-12-26T00:04:06.024Z,11.60
2018-12-26T00:06:37.391Z,11.53
2018-12-26T00:09:09.170Z,11.63
2018-12-26T00:11:40.560Z,13.07
2018-12-26T00:14:11.919Z,12.17
2018-12-26T00:16:44.275Z,13.07
2018-12-26T00:19:15.638Z,14.67
2018-12-26T00:21:46.976Z,12.30
2018-12-26T00:24:18.673Z,10.47
2018-12-26T00:26:50.316Z,12.97
2018-12-26T00:29:21.736Z,10.67
2018-12-26T00:31:53.091Z,11.73
2018-12-26T00:34:24.537Z,12.20
2018-12-26T00:36:55.988Z,13.07
2018-12-26T00:39:27.439Z,14.13
2018-12-26T00:41:58.790Z,12.90
2018-12-26T00:44:30.242Z,14.30
2018-12-26T00:47:01.601Z,13.60
2018-12-26T00:49:33.041Z,13.30
2018-12-26T00:52:04.399Z,13.13
2018-12-26T00:54:35.859Z,13.77
2018-12-26T00:57:07.301Z,13.33
2018-12-26T00:59:38.955Z,12.90
2018-12-26T01:02:10.295Z,11.53
2018-12-26T01:04:41.736Z,12.83
2018-12-26T01:07:13.135Z,12.20
2018-12-26T01:09:44.539Z,11.97
2018-12-26T01:12:16.342Z,13.20
2018-12-26T01:14:47.778Z,11.87
2018-12-26T01:17:19.303Z,14.37
2018-12-26T01:19:50.871Z,14.03
2018-12-26T01:22:22.532Z,13.70
2018-12-26T01:24:53.966Z,14.27
2018-12-26T01:27:25.318Z,13.70
2018-12-26T01:29:56.791Z,13.40
2018-12-26T01:32:28.223Z,12.63
2018-12-26T01:34:59.745Z,12.37
2018-12-26T01:37:31.234Z,12.93
2018-12-26T01:40:02.682Z,12.93
2018-12-26T01:42:34.059Z,12.90
2018-12-26T01:45:06.191Z,13.27
2018-12-26T01:47:37.547Z,14.73
2018-12-26T01:50:08.990Z,16.90
2018-12-26T01:52:41.498Z,12.03
2018-12-26T01:55:12.960Z,13.57
2018-12-26T01:57:44.341Z,13.47
2018-12-26T02:00:15.753Z,13.73
2018-12-26T02:02:47.152Z,13.30
2018-12-26T02:05:18.648Z,11.80
2018-12-26T02:07:50.042Z,13.77
2018-12-26T02:10:21.429Z,14.57
2018-12-26T02:12:52.872Z,12.87
2018-12-26T02:15:24.263Z,14.23
2018-12-26T02:17:55.657Z,13.70
2018-12-26T02:20:27.349Z,13.10
2018-12-26T02:22:58.757Z,12.00
2018-12-26T02:25:30.162Z,14.13
2018-12-26T02:28:01.556Z,11.50
2018-12-26T02:30:32.976Z,14.27
2018-12-26T02:33:04.350Z,11.63
2018-12-26T02:35:35.812Z,12.87
2018-12-26T02:38:07.472Z,14.97
2018-12-26T02:40:38.961Z,12.97
2018-12-26T02:43:10.411Z,11.97
2018-12-26T02:45:41.846Z,14.47
2018-12-26T02:48:13.538Z,11.87
2018-12-26T02:50:44.955Z,12.33
2018-12-26T02:53:16.299Z,15.20
2018-12-26T02:55:47.699Z,13.10
2018-12-26T02:58:19.175Z,13.73
2018-12-26T03:00:50.618Z,12.03
2018-12-26T03:03:21.977Z,12.90
2018-12-26T03:05:54.750Z,13.70
2018-12-26T03:08:26.104Z,12.87
2018-12-26T03:10:58.488Z,12.13
2018-12-26T03:13:29.930Z,11.17
2018-12-26T03:16:01.314Z,11.90
2018-12-26T03:18:33.102Z,12.10
2018-12-26T03:21:04.856Z,12.83
2018-12-26T03:23:36.992Z,12.17
2018-12-26T03:26:08.414Z,12.17
2018-12-26T03:28:39.761Z,10.87
2018-12-26T03:31:11.484Z,12.10
2018-12-26T03:33:43.604Z,12.07
2018-12-26T03:36:15.105Z,11.60
2018-12-26T03:38:46.759Z,13.73
2018-12-26T03:41:18.214Z,13.47
2018-12-26T03:43:50.480Z,11.17
2018-12-26T03:46:22.149Z,11.13
2018-12-26T03:48:53.626Z,13.57
2018-12-26T03:51:25.003Z,13.07
2018-12-26T03:53:56.347Z,12.90
2018-12-26T03:56:27.734Z,12.90
2018-12-26T03:58:59.120Z,12.27
2018-12-26T04:01:30.561Z,11.10
2018-12-26T04:04:01.920Z,14.40
2018-12-26T04:06:33.365Z,13.17
2018-12-26T04:09:06.508Z,12.00
2018-12-26T04:11:38.174Z,11.20
2018-12-26T04:14:09.722Z,11.57
2018-12-26T04:16:41.354Z,13.10
2018-12-26T04:19:12.875Z,11.93
2018-12-26T04:21:44.716Z,13.27
2018-12-26T04:24:16.473Z,12.33
2018-12-26T04:26:47.905Z,13.47
2018-12-26T04:29:19.327Z,12.57
2018-12-26T04:31:51.032Z,11.43
2018-12-26T04:34:22.415Z,11.60
2018-12-26T04:36:53.816Z,11.83
2018-12-26T04:39:25.203Z,13.47
2018-12-26T04:41:56.918Z,11.93
2018-12-26T04:44:28.606Z,13.57
2018-12-26T04:47:00.101Z,12.30
2018-12-26T04:49:31.523Z,12.60
2018-12-26T04:52:02.940Z,13.40
2018-12-26T04:54:34.288Z,13.83
2018-12-26T04:57:06.042Z,12.13
2018-12-26T04:59:37.421Z,12.77
2018-12-26T05:02:08.839Z,12.30
2018-12-26T05:04:40.240Z,12.33
2018-12-26T05:07:11.705Z,11.53
2018-12-26T05:09:43.188Z,11.47
2018-12-26T05:12:14.689Z,14.57
2018-12-26T05:14:46.029Z,14.13
2018-12-26T05:17:17.909Z,14.73
2018-12-26T05:19:49.529Z,16.43
2018-12-26T05:22:21.028Z,16.93
2018-12-26T05:24:52.367Z,17.63
2018-12-26T05:27:23.758Z,14.17
2018-12-26T05:29:55.159Z,14.13
2018-12-26T05:32:26.618Z,14.97
2018-12-26T05:34:59.311Z,15.47
2018-12-26T05:37:30.718Z,14.37
2018-12-26T05:40:02.083Z,15.63
2018-12-26T05:42:33.487Z,15.57
2018-12-26T05:45:05.374Z,15.83
2018-12-26T05:47:37.120Z,16.00
2018-12-26T05:50:08.467Z,18.57
2018-12-26T05:52:39.907Z,17.90
2018-12-26T05:55:11.301Z,17.63
2018-12-26T05:57:43.253Z,17.23
2018-12-26T06:00:15.227Z,20.60
2018-12-26T06:02:46.631Z,18.27
2018-12-26T06:05:18.069Z,18.90
2018-12-26T06:07:49.646Z,17.43
2018-12-26T06:10:21.043Z,16.97
2018-12-26T06:12:52.467Z,16.77
2018-12-26T06:15:23.838Z,17.97
2018-12-26T06:17:55.243Z,17.03
2018-12-26T06:20:26.939Z,16.00
2018-12-26T06:22:58.427Z,17.90
2018-12-26T06:25:31.795Z,18.70
2018-12-26T06:28:03.200Z,18.53
2018-12-26T06:30:34.997Z,17.97
2018-12-26T06:33:07.422Z,19.57
2018-12-26T06:35:39.295Z,15.50
2018-12-26T06:38:10.740Z,17.43
2018-12-26T06:40:42.141Z,18.17
2018-12-26T06:43:13.535Z,18.47
2018-12-26T06:45:45.234Z,20.53
2018-12-26T06:48:16.651Z,15.80
2018-12-26T06:50:48.042Z,17.57
2018-12-26T06:53:19.892Z,17.70
2018-12-26T06:55:51.247Z,18.00
2018-12-26T06:58:22.686Z,18.50
2018-12-26T07:00:54.061Z,19.33
2018-12-26T07:03:26.165Z,16.30
2018-12-26T07:05:57.669Z,17.87
2018-12-26T07:08:29.077Z,16.57
2018-12-26T07:11:00.472Z,15.97
2018-12-26T07:13:31.885Z,16.37
2018-12-26T07:16:03.607Z,15.87
2018-12-26T07:18:35.100Z,15.10
2018-12-26T07:21:06.769Z,14.90
2018-12-26T07:23:38.205Z,13.80
2018-12-26T07:26:09.591Z,16.00
2018-12-26T07:28:40.994Z,15.83
2018-12-26T07:31:12.399Z,13.97
2018-12-26T07:33:44.118Z,15.73
2018-12-26T07:36:15.532Z,17.30
2018-12-26T07:38:47.006Z,15.50
2018-12-26T07:41:18.578Z,13.80
2018-12-26T07:43:50.612Z,17.07
2018-12-26T07:46:22.030Z,14.47
2018-12-26T07:48:53.753Z,16.50
2018-12-26T07:51:27.228Z,15.90
2018-12-26T07:53:58.672Z,18.33
2018-12-26T07:56:30.072Z,18.30
2018-12-26T07:59:01.523Z,16.33
2018-12-26T08:01:33.004Z,16.30
2018-12-26T08:04:04.500Z,15.87
2018-12-26T08:06:36.694Z,14.03
2018-12-26T08:09:08.102Z,15.30
2018-12-26T08:11:42.081Z,12.70
2018-12-26T08:14:13.457Z,13.47
2018-12-26T08:16:44.863Z,13.13
2018-12-26T08:19:16.267Z,16.57
2018-12-26T08:21:47.662Z,18.07
2018-12-26T08:24:19.135Z,14.53
2018-12-26T08:26:50.562Z,12.43
2018-12-26T08:29:21.971Z,12.07
2018-12-26T08:31:53.704Z,11.93
2018-12-26T08:34:25.516Z,14.03
2018-12-26T08:36:57.348Z,14.83
2018-12-26T08:39:28.882Z,15.40
2018-12-26T08:42:00.286Z,15.77
2018-12-26T08:44:31.688Z,12.80
2018-12-26T08:47:03.832Z,12.07
2018-12-26T08:49:35.319Z,10.80
2018-12-26T08:52:07.356Z,10.93
2018-12-26T08:54:38.829Z,8.77
2018-12-26T08:57:10.621Z,7.50
2018-12-26T08:59:42.031Z,8.00
2018-12-26T09:02:13.449Z,7.27
2018-12-26T09:04:45.274Z,9.20
2018-12-26T09:07:16.654Z,10.30
2018-12-26T09:09:48.080Z,10.03
2018-12-26T09:12:19.731Z,8.73
2018-12-26T09:14:51.230Z,9.73
2018-12-26T09:17:22.927Z,11.47
2018-12-26T09:19:54.397Z,10.60
2018-12-26T09:22:25.769Z,12.13
2018-12-26T09:24:57.172Z,12.73
2018-12-26T09:27:28.659Z,10.33
2018-12-26T09:30:00.396Z,11.97
2018-12-26T09:32:31.769Z,11.03
2018-12-26T09:35:03.289Z,10.50
2018-12-26T09:37:34.711Z,9.97
2018-12-26T09:40:06.699Z,11.57
2018-12-26T09:42:38.089Z,14.33
2018-12-26T09:45:09.630Z,12.33
2018-12-26T09:47:40.991Z,13.23
2018-12-26T09:50:12.677Z,13.60
2018-12-26T09:52:44.560Z,11.87
2018-12-26T09:55:17.037Z,14.73
2018-12-26T09:57:50.483Z,13.07
2018-12-26T10:00:21.861Z,13.23
2018-12-26T10:02:56.267Z,11.10
2018-12-26T10:05:27.644Z,14.13
2018-12-26T10:07:59.411Z,12.23
2018-12-26T10:10:31.267Z,13.50
2018-12-26T10:13:02.711Z,12.17
2018-12-26T10:15:34.164Z,12.60
2018-12-26T10:18:06.659Z,13.40
2018-12-26T10:20:38.094Z,14.27
2018-12-26T10:23:09.877Z,11.37
2018-12-26T10:25:41.764Z,14.70
2018-12-26T10:28:13.479Z,13.47
2018-12-26T10:30:44.920Z,12.03
2018-12-26T10:33:17.042Z,15.47
2018-12-26T10:35:48.423Z,14.40
2018-12-26T10:38:19.926Z,14.67
2018-12-26T10:40:51.292Z,14.10
2018-12-26T10:43:22.672Z,13.10
2018-12-26T10:45:54.452Z,14.03
2018-12-26T10:48:25.913Z,13.30
2018-12-26T10:50:57.299Z,13.13
2018-12-26T10:53:29.129Z,12.93
2018-12-26T10:56:00.588Z,14.60
2018-12-26T10:58:32.937Z,13.57
2018-12-26T11:01:04.416Z,13.43
2018-12-26T11:03:38.449Z,14.40
2018-12-26T11:06:10.892Z,14.80
2018-12-26T11:08:42.451Z,12.33
2018-12-26T11:11:14.460Z,12.33
2018-12-26T11:13:45.836Z,14.37
2018-12-26T11:16:17.363Z,15.00
2018-12-26T11:18:49.687Z,17.13
2018-12-26T11:21:21.134Z,15.30
2018-12-26T11:23:52.577Z,18.03
2018-12-26T11:26:24.015Z,16.70
2018-12-26T11:28:55.692Z,15.43
2018-12-26T11:31:27.071Z,16.67
2018-12-26T11:33:58.538Z,17.93
2018-12-26T11:36:30.022Z,17.93
2018-12-26T11:39:01.731Z,16.00
2018-12-26T11:41:33.559Z,17.63
2018-12-26T11:44:04.967Z,17.27
2018-12-26T11:46:36.335Z,17.90
2018-12-26T11:49:07.775Z,16.53
2018-12-26T11:51:39.258Z,17.57
2018-12-26T11:54:10.744Z,18.57
2018-12-26T11:56:42.195Z,16.70
2018-12-26T11:59:13.553Z,18.07
2018-12-26T12:01:46.455Z,18.77
2018-12-26T12:04:17.884Z,19.50
2018-12-26T12:06:49.320Z,20.30
2018-12-26T12:09:20.890Z,18.40
2018-12-26T12:11:52.349Z,16.97
2018-12-26T12:14:24.895Z,18.63
2018-12-26T12:16:56.257Z,17.97
2018-12-26T12:19:27.681Z,17.90
2018-12-26T12:21:59.509Z,18.23
2018-12-26T12:24:31.224Z,15.87
2018-12-26T12:27:02.949Z,24.00
2018-12-26T12:29:36.108Z,18.47
2018-12-26T12:32:09.876Z,18.63
2018-12-26T12:34:41.293Z,20.70
2018-12-26T12:37:13.080Z,17.90
2018-12-26T12:39:44.595Z,15.80
2018-12-26T12:42:16.238Z,17.67
2018-12-26T12:44:48.121Z,16.57
2018-12-26T12:47:20.095Z,16.43
2018-12-26T12:49:51.631Z,16.03
2018-12-26T12:52:23.072Z,15.13
2018-12-26T12:54:54.534Z,20.57
2018-12-26T12:57:25.975Z,18.60
2018-12-26T12:59:57.863Z,17.33
2018-12-26T13:02:29.310Z,16.63
2018-12-26T13:05:01.235Z,15.50
2018-12-26T13:07:32.586Z,14.87
2018-12-26T13:10:06.104Z,18.13
2018-12-26T13:12:39.450Z,17.23
2018-12-26T13:15:11.240Z,15.87
2018-12-26T13:17:42.601Z,18.37
2018-12-26T13:20:14.059Z,19.47
2018-12-26T13:22:45.494Z,16.40
2018-12-26T13:25:19.343Z,16.43
2018-12-26T13:27:50.748Z,16.47
2018-12-26T13:30:22.215Z,16.50
2018-12-26T13:32:53.727Z,15.90
2018-12-26T13:35:25.346Z,15.97
2018-12-26T13:37:57.135Z,16.03
2018-12-26T13:40:28.693Z,17.33
2018-12-26T13:43:00.274Z,15.53
2018-12-26T13:45:32.042Z,17.47
2018-12-26T13:48:03.631Z,15.70
2018-12-26T13:50:35.055Z,16.80
2018-12-26T13:53:06.486Z,15.17
2018-12-26T13:55:38.418Z,15.63
2018-12-26T13:58:10.117Z,15.73
2018-12-26T14:00:41.569Z,18.10
2018-12-26T14:03:13.453Z,15.97
2018-12-26T14:05:44.896Z,15.73
2018-12-26T14:08:16.633Z,16.00
2018-12-26T14:10:48.095Z,13.20
2018-12-26T14:13:20.760Z,13.37
2018-12-26T14:15:52.266Z,14.20
2018-12-26T14:18:23.700Z,13.97
2018-12-26T14:20:56.190Z,12.67
2018-12-26T14:23:27.668Z,11.97
2018-12-26T14:25:59.069Z,6.87
2018-12-26T14:28:30.547Z,9.77
2018-12-26T14:31:01.971Z,10.57
2018-12-26T14:33:33.362Z,10.77
2018-12-26T14:36:08.049Z,9.40
2018-12-26T14:38:39.969Z,11.07
2018-12-26T14:41:11.510Z,6.40
2018-12-26T14:43:43.287Z,9.70
2018-12-26T14:46:14.989Z,8.10
2018-12-26T14:48:47.310Z,7.07
2018-12-26T14:51:26.418Z,8.03
2018-12-26T14:53:52.827Z,10.53
2018-12-26T14:56:25.306Z,7.10
2018-12-26T14:58:57.216Z,18.90
2018-12-26T15:01:28.899Z,12.47
2018-12-26T15:04:00.407Z,14.83
2018-12-26T15:06:34.045Z,11.70
2018-12-26T15:09:09.792Z,14.13
2018-12-26T15:11:41.256Z,12.27
2018-12-26T15:14:13.512Z,12.93
2018-12-26T15:16:45.438Z,13.73
2018-12-26T15:19:19.048Z,12.27
2018-12-26T15:21:50.527Z,14.03
2018-12-26T15:24:22.113Z,14.60
2018-12-26T15:26:56.629Z,14.60
2018-12-26T15:29:28.265Z,15.00
2018-12-26T15:31:59.684Z,14.93
2018-12-26T15:34:31.362Z,16.20
2018-12-26T15:37:02.892Z,17.63
2018-12-26T15:39:37.179Z,17.40
2018-12-26T15:42:08.732Z,17.63
2018-12-26T15:44:43.233Z,18.60
2018-12-26T15:47:14.745Z,21.07
2018-12-26T15:49:47.010Z,18.87
2018-12-26T15:52:18.806Z,15.23
2018-12-26T15:54:50.822Z,18.97
2018-12-26T15:57:22.435Z,17.63
2018-12-26T15:59:56.082Z,18.07
2018-12-26T16:02:27.606Z,16.73
2018-12-26T16:04:59.026Z,20.17
2018-12-26T16:07:30.576Z,22.97
2018-12-26T16:10:02.104Z,20.10
2018-12-26T16:12:33.558Z,17.77
2018-12-26T16:15:06.065Z,18.83
2018-12-26T16:17:37.912Z,17.73
2018-12-26T16:20:10.903Z,17.17
2018-12-26T16:22:42.314Z,18.07
2018-12-26T16:25:14.277Z,17.67
2018-12-26T16:27:46.020Z,20.20
2018-12-26T16:30:17.433Z,19.37
2018-12-26T16:32:49.155Z,18.03
2018-12-26T16:35:20.644Z,20.03
2018-12-26T16:37:52.135Z,18.37
2018-12-26T16:40:25.411Z,17.33
2018-12-26T16:42:58.215Z,17.63
2018-12-26T16:45:29.621Z,18.47
2018-12-26T16:48:01.256Z,18.43
2018-12-26T16:50:32.880Z,17.17
2018-12-26T16:53:04.332Z,18.27
2018-12-26T16:55:35.833Z,19.90
2018-12-26T16:58:07.386Z,21.27
2018-12-26T17:00:38.806Z,21.03
2018-12-26T17:03:10.250Z,23.93
2018-12-26T17:05:41.970Z,19.70
2018-12-26T17:08:13.458Z,18.07
2018-12-26T17:10:44.827Z,21.60
2018-12-26T17:13:16.230Z,19.60
2018-12-26T17:15:47.724Z,17.77
2018-12-26T17:18:19.196Z,18.57
2018-12-26T17:20:50.635Z,21.97
2018-12-26T17:23:22.062Z,20.30
2018-12-26T17:25:53.572Z,20.03
2018-12-26T17:28:25.239Z,22.77
2018-12-26T17:31:04.154Z,21.73
2018-12-26T17:33:29.955Z,21.07
2018-12-26T17:36:01.389Z,21.20
2018-12-26T17:38:32.818Z,20.03
2018-12-26T17:41:04.193Z,19.63
2018-12-26T17:43:35.635Z,18.50
2018-12-26T17:46:08.680Z,24.90
2018-12-26T17:48:42.100Z,23.20
2018-12-26T17:51:16.915Z,21.80
2018-12-26T17:54:16.064Z,23.50
2018-12-26T17:56:54.644Z,23.63
2018-12-26T17:59:51.595Z,23.83
2018-12-26T18:02:36.613Z,20.53
2018-12-26T18:05:08.199Z,20.40
2018-12-26T18:07:39.712Z,19.13
2018-12-26T18:10:11.198Z,18.10
2018-12-26T18:12:42.642Z,22.60
2018-12-26T18:15:14.527Z,18.83
2018-12-26T18:17:45.973Z,18.77
2018-12-26T18:20:17.329Z,21.70
2018-12-26T18:22:48.705Z,22.57
2018-12-26T18:25:20.238Z,20.07
2018-12-26T18:27:52.079Z,16.00
2018-12-26T18:30:23.468Z,16.20
2018-12-26T18:32:57.539Z,19.00
2018-12-26T18:35:28.981Z,22.20
2018-12-26T18:38:00.480Z,19.50
2018-12-26T18:40:31.964Z,24.50
2018-12-26T18:43:03.471Z,23.67
2018-12-26T18:45:34.901Z,16.87
2018-12-26T18:48:06.338Z,20.50
2018-12-26T18:50:37.741Z,22.33
2018-12-26T18:53:09.539Z,23.30
2018-12-26T18:55:40.966Z,25.77
2018-12-26T18:58:12.399Z,22.27
2018-12-26T19:00:43.847Z,23.13
2018-12-26T19:03:15.265Z,19.33
2018-12-26T19:05:46.655Z,21.10
2018-12-26T19:08:18.110Z,21.83
2018-12-26T19:10:49.449Z,21.23
2018-12-26T19:13:20.908Z,22.30
2018-12-26T19:15:52.442Z,21.37
2018-12-26T19:18:23.809Z,21.27
2018-12-26T19:20:55.290Z,16.77
2018-12-26T19:23:26.703Z,18.03
2018-12-26T19:25:58.123Z,19.87
2018-12-26T19:28:29.568Z,17.87
2018-12-26T19:31:01.038Z,19.20
2018-12-26T19:33:32.407Z,19.57
2018-12-26T19:36:03.828Z,17.90
2018-12-26T19:38:35.454Z,22.43
2018-12-26T19:41:06.926Z,21.80
2018-12-26T19:43:38.347Z,21.67
2018-12-26T19:46:09.831Z,20.97
2018-12-26T19:48:41.281Z,19.30
2018-12-26T19:51:13.036Z,22.27
2018-12-26T19:53:44.399Z,24.57
2018-12-26T19:56:19.445Z,19.10
2018-12-26T19:58:50.534Z,24.97
2018-12-26T20:01:24.165Z,19.27
2018-12-26T20:03:57.564Z,26.20
2018-12-26T20:06:32.249Z,27.87
2018-12-26T20:09:03.442Z,35.63
2018-12-26T20:11:36.133Z,32.67
2018-12-26T20:14:07.873Z,29.80
2018-12-26T20:16:40.314Z,25.20
2018-12-26T20:19:11.665Z,25.43
2018-12-26T20:21:44.145Z,36.33
2018-12-26T20:24:15.639Z,26.13
2018-12-26T20:26:48.533Z,26.03
2018-12-26T20:29:20.330Z,22.33
2018-12-26T20:31:56.948Z,21.90
2018-12-26T20:34:26.792Z,27.87
2018-12-26T20:36:58.283Z,28.80
2018-12-26T20:39:32.221Z,27.73
2018-12-26T20:42:04.774Z,27.00
2018-12-26T20:44:36.244Z,27.23
2018-12-26T20:47:07.698Z,27.63
2018-12-26T20:49:41.881Z,23.67
2018-12-26T20:52:13.383Z,22.60
2018-12-26T20:54:44.779Z,22.47
2018-12-26T20:57:16.166Z,24.10
2018-12-26T20:59:47.559Z,20.23
2018-12-26T21:02:18.970Z,20.47
2018-12-26T21:04:50.413Z,19.73
2018-12-26T21:07:22.172Z,19.43
2018-12-26T21:09:53.572Z,18.87
2018-12-26T21:12:25.044Z,15.37
2018-12-26T21:14:56.620Z,18.37
2018-12-26T21:17:28.084Z,17.43
2018-12-26T21:19:59.452Z,17.90
2018-12-26T21:22:30.950Z,20.43
2018-12-26T21:25:03.485Z,23.97
2018-12-26T21:27:34.880Z,21.23
2018-12-26T21:30:09.035Z,18.97
2018-12-26T21:32:41.486Z,20.90
2018-12-26T21:35:12.893Z,22.07
2018-12-26T21:37:44.380Z,21.73
2018-12-26T21:40:15.781Z,23.80
2018-12-26T21:42:47.187Z,23.33
2018-12-26T21:45:18.647Z,20.60
2018-12-26T21:47:50.044Z,21.73
2018-12-26T21:50:21.956Z,22.30
2018-12-26T21:52:53.402Z,20.40
2018-12-26T21:55:24.741Z,24.33
2018-12-26T21:57:57.277Z,20.53
2018-12-26T22:00:28.740Z,22.40
2018-12-26T22:03:00.114Z,19.67
2018-12-26T22:05:32.558Z,18.43
2018-12-26T22:08:05.403Z,18.93
2018-12-26T22:10:37.065Z,20.13
2018-12-26T22:13:08.455Z,19.70
2018-12-26T22:15:39.803Z,18.17
2018-12-26T22:18:11.194Z,20.80
2018-12-26T22:20:42.730Z,22.93
2018-12-26T22:23:14.217Z,27.30
2018-12-26T22:25:45.617Z,27.90
2018-12-26T22:28:18.043Z,32.63
2018-12-26T22:30:51.065Z,26.00
2018-12-26T22:33:23.200Z,31.27
2018-12-26T22:35:54.911Z,28.60
2018-12-26T22:38:26.409Z,31.67
2018-12-26T22:40:58.060Z,30.93
2018-12-26T22:43:29.583Z,28.90
2018-12-26T22:46:01.055Z,31.57
2018-12-26T22:48:32.503Z,30.67
2018-12-26T22:51:03.902Z,31.10
2018-12-26T22:53:35.305Z,30.27
2018-12-26T22:56:06.647Z,29.13
2018-12-26T22:58:38.111Z,33.77
2018-12-26T23:01:09.642Z,33.83
2018-12-26T23:03:41.138Z,38.27
2018-12-26T23:06:12.499Z,37.77
2018-12-26T23:08:43.916Z,33.60
2018-12-26T23:11:15.299Z,29.07
2018-12-26T23:13:46.985Z,26.90
2018-12-26T23:16:18.427Z,28.37
2018-12-26T23:18:50.253Z,30.43
2018-12-26T23:21:21.767Z,26.83
2018-12-26T23:23:53.202Z,28.63
2018-12-26T23:26:24.658Z,27.30
2018-12-26T23:28:56.199Z,25.10
2018-12-26T23:31:27.552Z,27.90
2018-12-26T23:33:58.989Z,25.77
2018-12-26T23:36:30.469Z,25.30
2018-12-26T23:39:01.909Z,27.67
2018-12-26T23:41:34.415Z,27.70
2018-12-26T23:44:06.140Z,26.10
2018-12-26T23:46:37.619Z,27.77
2018-12-26T23:49:09.062Z,25.13
2018-12-26T23:51:40.485Z,25.67
2018-12-26T23:54:11.946Z,26.27
2018-12-26T23:56:43.406Z,24.43
2018-12-26T23:59:16.046Z,26.40
